CST,Max TemperatureF,Mean TemperatureF,Min TemperatureF,Max Dew PointF,MeanDew PointF,Min DewpointF,Max Humidity, Mean Humidity, Min Humidity, Max Sea Level PressureIn, Mean Sea Level PressureIn, Min Sea Level PressureIn, Max VisibilityMiles, Mean VisibilityMiles, Min VisibilityMiles, Max Wind SpeedMPH, Mean Wind SpeedMPH, Max Gust SpeedMPH,PrecipitationIn, CloudCover, Events, WindDirDegrees
2013-1-1,70,60,51,68,57,43,100,87,72,30.18,30.03,29.87,10,9,4,25,14,37,0.09,7,Rain,356
2013-1-2,50,46,42,43,39,36,89,82,66,30.31,30.25,30.17,10,8,5,22,17,,0.35,8,Rain,5
2013-1-3,50,47,44,37,35,30,76,62,46,30.40,30.35,30.29,10,10,10,20,16,,0.00,8,,21
2013-1-4,50,47,44,43,39,34,93,73,54,30.44,30.39,30.35,10,8,1,23,17,30,0.03,8,Rain,22
2013-1-5,,,,,,,,,,30.35,30.31,30.26,,,,,,,0.00,,,-1
2013-1-6,61,58,54,45,43,41,68,59,48,30.38,30.30,30.27,10,10,10,9,6,,0.00,1,,67
2013-1-7,63,54,44,56,50,43,94,79,63,30.32,30.14,30.01,10,9,5,12,8,,0.00,7,,70
2013-1-8,68,64,59,65,61,57,96,90,83,29.98,29.88,29.79,10,6,1,24,11,25,0.03,8,Rain,100
2013-1-9,70,64,57,67,61,57,100,90,81,30.04,29.90,29.81,10,8,2,24,13,32,0.57,7,Rain-Thunderstorm,216
2013-1-10,64,60,55,57,52,46,100,80,52,30.12,30.06,30.03,10,10,6,10,6,,0.00,3,Thunderstorm,206
2013-1-11,73,64,55,70,64,54,100,95,81,30.04,29.91,29.82,10,5,0,16,8,22,0.01,5,Fog,153
2013-1-12,86,78,69,70,69,68,100,70,55,29.85,29.76,29.66,7,4,0,24,13,33,0.00,8,,164
2013-1-13,90,69,48,70,49,37,93,63,47,30.09,29.93,29.73,10,8,2,29,15,41,0.04,8,Rain,11
2013-1-14,52,48,45,45,40,36,87,75,59,30.19,30.12,30.07,10,9,4,22,16,26,0.00,8,,17
2013-1-15,48,46,43,46,42,35,93,84,66,30.23,30.10,30.04,10,6,1,23,17,30,0.22,8,Rain,354
2013-1-16,57,48,40,35,27,15,59,43,19,30.38,30.29,30.22,10,10,10,23,18,36,0.00,4,,318
2013-1-17,68,56,43,44,33,26,70,44,27,30.47,30.40,30.33,10,10,10,12,6,,0.00,2,,288
2013-1-18,71,60,49,49,45,41,77,61,42,30.51,30.42,30.34,10,10,10,13,6,,0.00,2,,42
2013-1-19,,,,,,,,,,30.32,30.25,30.17,10,10,10,15,7,18,0.00,0,,119
2013-1-20,70,66,61,56,53,51,78,66,55,30.27,30.19,30.12,10,8,1,14,3,,0.01,1,,106
2013-1-21,,,,,,,,,,30.25,30.18,30.13,10,10,2,10,5,,0.00,0,,87
2013-1-22,69,64,58,59,55,53,86,73,54,30.30,30.24,30.17,10,10,9,12,6,,0.00,4,Fog,75
2013-1-23,79,68,57,64,62,55,91,78,58,30.33,30.27,30.23,10,10,7,17,6,,0.00,3,Fog,136
2013-1-24,79,72,64,64,63,61,90,79,58,30.30,30.22,30.15,10,10,10,20,12,26,0.00,1,,173
2013-1-25,78,71,64,65,64,61,93,81,62,30.17,30.11,30.05,10,10,10,18,13,26,0.00,1,,170
2013-1-26,78,72,66,64,63,62,94,81,58,30.15,30.10,30.06,10,10,10,18,13,24,0.00,1,,151
2013-1-27,77,72,66,68,67,62,93,86,74,30.09,30.04,29.98,10,10,8,23,14,31,0.00,5,,141
2013-1-28,79,74,70,70,68,66,94,85,69,30.07,29.99,29.91,8,6,3,25,18,34,0.00,6,,149
2013-1-29,78,74,69,70,66,45,94,81,39,29.90,29.75,29.61,10,7,2,26,19,38,0.00,7,,174
2013-1-30,70,64,59,46,28,18,44,26,16,30.25,30.03,29.77,10,10,10,34,22,44,0.00,4,,346
2013-1-31,70,56,42,51,35,19,81,46,15,30.34,30.27,30.23,10,10,10,16,9,16,0.00,4,,165